Startpagina
METAR-TAF:

METAR-TAF

Vliegvelden :

Teheran Mehrabad International Airport

Teheran, Iran

breedte: 35-41N, lengte: 051-21E, hoogte: 1204 m

Actueel weer

Dit bericht is 29 minuten geleden gemaakt, om 15:30 UTC
Weinig wind
Temperatuur 22°C
Vochtigheid 27%
Druk 1024 hPa
Zicht 10 km of meer
geen wolken onder 1500 m en geen cumulonimbus

METAR: OIII 151530Z 00000KT CAVOK 22/02 Q1023 A3023

Tijdstip: 19:29 (15:59 UTC)

Verwachting

Dit bericht is 4 uur en het 39 minuten geleden gemaakt, om 11:20 UTC
Verwachting geldig van 15 om 12 UTC tot 16 om 18 UTC
Wind 8 kt uit het oostzuidoosten
Zicht: 7000 m
Weinig wolken op 4000 ft
Wijzigt naar
van 15 om 16 UTC tot 15 om 18 UTC
Wind 8 kt uit het noordwesten

TAF: OIII 151120Z 1512/1618 12008KT 7000 FEW040 BECMG 1516/1518 31008KT

Waarnemingen en weersverwachtingen van meer dan 4000 vliegvelden (METAR en TAF).

De beschikbare stations zijn de gele en rode punten op de kaart.

Ga met uw muis naar het station om de naam te zien.

Klik dan om waarnemingen en weersverwachtingen te zien.

kaart wijzigen: klik op de groene knoppen met een zwart kruis om in te zoomen, op de groene knop met een streepje om uit te zoomen of op de groene pijlen voor aangrenzende kaarten.


METAR-TAF: